sensor_id;sensor_type;location;lat;lon;timestamp;P1;durP1;ratioP1;P2;durP2;ratioP2
7485;SDS011;3784;54.098;9.998;2023-07-02T00:00:47;15.87;;;14.33;;
7485;SDS011;3784;54.098;9.998;2023-07-02T00:03:14;16.33;;;14.57;;
7485;SDS011;3784;54.098;9.998;2023-07-02T00:05:41;15.57;;;13.97;;
7485;SDS011;3784;54.098;9.998;2023-07-02T00:08:07;16.83;;;15.33;;
7485;SDS011;3784;54.098;9.998;2023-07-02T00:10:34;15.33;;;14.10;;
7485;SDS011;3784;54.098;9.998;2023-07-02T00:15:51;15.93;;;14.40;;
7485;SDS011;3784;54.098;9.998;2023-07-02T00:18:18;16.43;;;14.63;;
7485;SDS011;3784;54.098;9.998;2023-07-02T00:20:44;15.47;;;14.03;;
7485;SDS011;3784;54.098;9.998;2023-07-02T00:23:12;18.03;;;16.33;;
7485;SDS011;3784;54.098;9.998;2023-07-02T00:25:38;16.00;;;14.57;;
7485;SDS011;3784;54.098;9.998;2023-07-02T00:28:04;16.27;;;14.97;;
7485;SDS011;3784;54.098;9.998;2023-07-02T00:30:31;16.60;;;15.30;;
7485;SDS011;3784;54.098;9.998;2023-07-02T00:32:57;15.37;;;13.90;;
7485;SDS011;3784;54.098;9.998;2023-07-02T00:35:24;17.40;;;15.57;;
7485;SDS011;3784;54.098;9.998;2023-07-02T00:37:50;17.10;;;15.30;;
7485;SDS011;3784;54.098;9.998;2023-07-02T00:40:16;17.67;;;15.53;;
7485;SDS011;3784;54.098;9.998;2023-07-02T00:42:43;16.70;;;14.87;;
7485;SDS011;3784;54.098;9.998;2023-07-02T00:45:09;16.17;;;15.07;;
7485;SDS011;3784;54.098;9.998;2023-07-02T00:47:36;16.77;;;14.50;;
7485;SDS011;3784;54.098;9.998;2023-07-02T00:50:02;16.20;;;14.90;;
7485;SDS011;3784;54.098;9.998;2023-07-02T00:52:29;16.30;;;14.70;;
7485;SDS011;3784;54.098;9.998;2023-07-02T00:54:55;16.30;;;14.70;;
7485;SDS011;3784;54.098;9.998;2023-07-02T00:57:22;16.33;;;14.93;;
7485;SDS011;3784;54.098;9.998;2023-07-02T00:59:48;15.83;;;14.40;;
7485;SDS011;3784;54.098;9.998;2023-07-02T01:02:18;17.27;;;15.87;;
7485;SDS011;3784;54.098;9.998;2023-07-02T01:04:44;17.57;;;16.17;;
7485;SDS011;3784;54.098;9.998;2023-07-02T01:07:16;17.03;;;15.63;;
7485;SDS011;3784;54.098;9.998;2023-07-02T01:09:42;17.50;;;15.90;;
7485;SDS011;3784;54.098;9.998;2023-07-02T01:12:08;17.80;;;16.43;;
7485;SDS011;3784;54.098;9.998;2023-07-02T01:14:38;15.93;;;14.43;;
7485;SDS011;3784;54.098;9.998;2023-07-02T01:17:05;16.87;;;15.33;;
7485;SDS011;3784;54.098;9.998;2023-07-02T01:19:37;17.03;;;15.63;;
7485;SDS011;3784;54.098;9.998;2023-07-02T01:22:14;18.20;;;16.63;;
7485;SDS011;3784;54.098;9.998;2023-07-02T01:24:41;17.33;;;15.63;;
7485;SDS011;3784;54.098;9.998;2023-07-02T01:27:07;17.60;;;15.53;;
7485;SDS011;3784;54.098;9.998;2023-07-02T01:29:36;15.93;;;14.53;;
7485;SDS011;3784;54.098;9.998;2023-07-02T01:32:04;17.57;;;16.20;;
7485;SDS011;3784;54.098;9.998;2023-07-02T01:34:31;18.17;;;16.60;;
7485;SDS011;3784;54.098;9.998;2023-07-02T01:36:58;19.60;;;17.60;;
7485;SDS011;3784;54.098;9.998;2023-07-02T01:39:24;17.67;;;16.27;;
7485;SDS011;3784;54.098;9.998;2023-07-02T01:41:51;17.53;;;16.07;;
7485;SDS011;3784;54.098;9.998;2023-07-02T01:44:19;18.50;;;16.63;;
7485;SDS011;3784;54.098;9.998;2023-07-02T01:46:46;17.53;;;15.97;;
7485;SDS011;3784;54.098;9.998;2023-07-02T01:49:15;20.10;;;18.10;;
7485;SDS011;3784;54.098;9.998;2023-07-02T01:51:48;18.17;;;16.83;;
7485;SDS011;3784;54.098;9.998;2023-07-02T01:54:15;18.47;;;16.80;;
7485;SDS011;3784;54.098;9.998;2023-07-02T01:56:41;18.90;;;17.23;;
7485;SDS011;3784;54.098;9.998;2023-07-02T01:59:08;19.53;;;17.63;;
7485;SDS011;3784;54.098;9.998;2023-07-02T02:01:35;19.80;;;17.87;;
7485;SDS011;3784;54.098;9.998;2023-07-02T02:04:01;19.43;;;17.53;;
7485;SDS011;3784;54.098;9.998;2023-07-02T02:06:27;17.97;;;16.27;;
7485;SDS011;3784;54.098;9.998;2023-07-02T02:08:54;17.10;;;15.80;;
7485;SDS011;3784;54.098;9.998;2023-07-02T02:11:20;17.50;;;15.87;;
7485;SDS011;3784;54.098;9.998;2023-07-02T02:13:47;18.10;;;16.63;;
7485;SDS011;3784;54.098;9.998;2023-07-02T02:16:14;18.47;;;16.97;;
7485;SDS011;3784;54.098;9.998;2023-07-02T02:18:41;16.57;;;15.33;;
7485;SDS011;3784;54.098;9.998;2023-07-02T02:21:08;18.57;;;17.13;;
7485;SDS011;3784;54.098;9.998;2023-07-02T02:23:34;19.80;;;18.00;;
7485;SDS011;3784;54.098;9.998;2023-07-02T02:26:01;17.70;;;16.17;;
7485;SDS011;3784;54.098;9.998;2023-07-02T02:28:27;17.77;;;16.20;;
7485;SDS011;3784;54.098;9.998;2023-07-02T02:30:53;18.57;;;17.10;;
7485;SDS011;3784;54.098;9.998;2023-07-02T02:33:21;18.53;;;17.03;;
7485;SDS011;3784;54.098;9.998;2023-07-02T02:35:47;17.63;;;16.17;;
7485;SDS011;3784;54.098;9.998;2023-07-02T02:38:14;17.80;;;16.20;;
7485;SDS011;3784;54.098;9.998;2023-07-02T02:40:40;17.37;;;15.67;;
7485;SDS011;3784;54.098;9.998;2023-07-02T02:43:07;19.27;;;17.43;;
7485;SDS011;3784;54.098;9.998;2023-07-02T02:45:33;15.80;;;14.40;;
7485;SDS011;3784;54.098;9.998;2023-07-02T02:50:59;17.27;;;15.70;;
7485;SDS011;3784;54.098;9.998;2023-07-02T02:53:26;17.97;;;16.50;;
7485;SDS011;3784;54.098;9.998;2023-07-02T02:55:52;20.10;;;17.83;;
7485;SDS011;3784;54.098;9.998;2023-07-02T02:58:19;18.30;;;16.60;;
7485;SDS011;3784;54.098;9.998;2023-07-02T03:00:46;20.60;;;18.77;;
7485;SDS011;3784;54.098;9.998;2023-07-02T03:03:13;18.63;;;16.67;;
7485;SDS011;3784;54.098;9.998;2023-07-02T03:05:40;16.90;;;15.20;;
7485;SDS011;3784;54.098;9.998;2023-07-02T03:08:06;20.20;;;18.10;;
7485;SDS011;3784;54.098;9.998;2023-07-02T03:10:33;21.00;;;19.37;;
7485;SDS011;3784;54.098;9.998;2023-07-02T03:12:59;21.80;;;19.80;;
7485;SDS011;3784;54.098;9.998;2023-07-02T03:15:26;22.33;;;20.30;;
7485;SDS011;3784;54.098;9.998;2023-07-02T03:17:52;24.00;;;21.70;;
7485;SDS011;3784;54.098;9.998;2023-07-02T03:20:19;23.23;;;21.03;;
7485;SDS011;3784;54.098;9.998;2023-07-02T03:22:45;24.60;;;22.17;;
7485;SDS011;3784;54.098;9.998;2023-07-02T03:25:12;23.87;;;21.50;;
7485;SDS011;3784;54.098;9.998;2023-07-02T03:27:38;25.23;;;22.27;;
7485;SDS011;3784;54.098;9.998;2023-07-02T03:30:05;26.10;;;23.83;;
7485;SDS011;3784;54.098;9.998;2023-07-02T03:32:32;23.03;;;20.73;;
7485;SDS011;3784;54.098;9.998;2023-07-02T03:34:58;24.03;;;19.60;;
7485;SDS011;3784;54.098;9.998;2023-07-02T03:37:25;21.30;;;19.20;;
7485;SDS011;3784;54.098;9.998;2023-07-02T03:39:51;23.53;;;21.27;;
7485;SDS011;3784;54.098;9.998;2023-07-02T03:42:17;21.97;;;19.50;;
7485;SDS011;3784;54.098;9.998;2023-07-02T03:44:44;22.63;;;20.70;;
7485;SDS011;3784;54.098;9.998;2023-07-02T03:47:10;20.07;;;18.13;;
7485;SDS011;3784;54.098;9.998;2023-07-02T03:49:41;23.27;;;19.67;;
7485;SDS011;3784;54.098;9.998;2023-07-02T03:52:08;23.93;;;20.63;;
7485;SDS011;3784;54.098;9.998;2023-07-02T03:54:38;23.13;;;20.83;;
7485;SDS011;3784;54.098;9.998;2023-07-02T03:57:05;21.67;;;19.53;;
7485;SDS011;3784;54.098;9.998;2023-07-02T03:59:31;24.93;;;22.60;;
7485;SDS011;3784;54.098;9.998;2023-07-02T04:01:58;21.63;;;19.70;;
7485;SDS011;3784;54.098;9.998;2023-07-02T04:04:24;23.40;;;20.97;;
7485;SDS011;3784;54.098;9.998;2023-07-02T04:06:51;23.83;;;21.53;;
7485;SDS011;3784;54.098;9.998;2023-07-02T04:09:17;23.90;;;20.20;;
7485;SDS011;3784;54.098;9.998;2023-07-02T04:11:44;26.83;;;18.17;;
7485;SDS011;3784;54.098;9.998;2023-07-02T04:14:11;21.07;;;18.57;;
7485;SDS011;3784;54.098;9.998;2023-07-02T04:16:37;22.47;;;20.10;;
7485;SDS011;3784;54.098;9.998;2023-07-02T04:19:04;22.27;;;20.33;;
7485;SDS011;3784;54.098;9.998;2023-07-02T04:21:30;21.57;;;19.47;;
7485;SDS011;3784;54.098;9.998;2023-07-02T04:23:56;20.87;;;18.97;;
7485;SDS011;3784;54.098;9.998;2023-07-02T04:26:23;24.40;;;20.17;;
7485;SDS011;3784;54.098;9.998;2023-07-02T04:29:12;20.50;;;18.70;;
7485;SDS011;3784;54.098;9.998;2023-07-02T04:31:39;22.37;;;19.50;;
7485;SDS011;3784;54.098;9.998;2023-07-02T04:34:05;23.17;;;21.37;;
7485;SDS011;3784;54.098;9.998;2023-07-02T04:36:32;21.00;;;19.17;;
7485;SDS011;3784;54.098;9.998;2023-07-02T04:38:58;24.47;;;22.27;;
7485;SDS011;3784;54.098;9.998;2023-07-02T04:41:25;25.00;;;22.83;;
7485;SDS011;3784;54.098;9.998;2023-07-02T04:43:52;23.00;;;21.03;;
7485;SDS011;3784;54.098;9.998;2023-07-02T04:46:18;20.53;;;18.77;;
7485;SDS011;3784;54.098;9.998;2023-07-02T04:48:45;32.17;;;29.47;;
7485;SDS011;3784;54.098;9.998;2023-07-02T04:51:11;19.30;;;17.37;;
7485;SDS011;3784;54.098;9.998;2023-07-02T04:53:38;19.63;;;18.03;;
7485;SDS011;3784;54.098;9.998;2023-07-02T04:56:04;24.53;;;19.77;;
7485;SDS011;3784;54.098;9.998;2023-07-02T04:58:33;19.63;;;17.73;;
7485;SDS011;3784;54.098;9.998;2023-07-02T05:01:00;20.37;;;18.27;;
7485;SDS011;3784;54.098;9.998;2023-07-02T05:03:26;25.03;;;19.60;;
7485;SDS011;3784;54.098;9.998;2023-07-02T05:05:53;19.50;;;17.63;;
7485;SDS011;3784;54.098;9.998;2023-07-02T05:08:19;22.70;;;20.17;;
7485;SDS011;3784;54.098;9.998;2023-07-02T05:10:46;20.13;;;18.10;;
7485;SDS011;3784;54.098;9.998;2023-07-02T05:13:13;21.90;;;18.40;;
7485;SDS011;3784;54.098;9.998;2023-07-02T05:15:39;20.43;;;17.97;;
7485;SDS011;3784;54.098;9.998;2023-07-02T05:18:07;21.97;;;18.10;;
7485;SDS011;3784;54.098;9.998;2023-07-02T05:20:33;20.47;;;18.07;;
7485;SDS011;3784;54.098;9.998;2023-07-02T05:23:00;20.10;;;18.03;;
7485;SDS011;3784;54.098;9.998;2023-07-02T05:25:26;21.63;;;17.57;;
7485;SDS011;3784;54.098;9.998;2023-07-02T05:27:52;25.97;;;17.70;;
7485;SDS011;3784;54.098;9.998;2023-07-02T05:30:19;24.87;;;18.03;;
7485;SDS011;3784;54.098;9.998;2023-07-02T05:32:45;20.53;;;16.10;;
7485;SDS011;3784;54.098;9.998;2023-07-02T05:35:12;23.63;;;16.57;;
7485;SDS011;3784;54.098;9.998;2023-07-02T05:37:38;19.43;;;15.77;;
7485;SDS011;3784;54.098;9.998;2023-07-02T05:40:05;20.07;;;17.47;;
7485;SDS011;3784;54.098;9.998;2023-07-02T05:42:32;25.37;;;17.83;;
7485;SDS011;3784;54.098;9.998;2023-07-02T05:44:58;21.53;;;19.33;;
7485;SDS011;3784;54.098;9.998;2023-07-02T05:47:25;23.03;;;20.07;;
7485;SDS011;3784;54.098;9.998;2023-07-02T05:49:55;19.27;;;17.27;;
7485;SDS011;3784;54.098;9.998;2023-07-02T05:52:21;23.37;;;19.23;;
7485;SDS011;3784;54.098;9.998;2023-07-02T05:54:48;23.17;;;18.40;;
7485;SDS011;3784;54.098;9.998;2023-07-02T05:57:15;22.27;;;20.17;;
7485;SDS011;3784;54.098;9.998;2023-07-02T05:59:41;21.93;;;18.47;;
7485;SDS011;3784;54.098;9.998;2023-07-02T06:02:08;21.30;;;19.07;;
7485;SDS011;3784;54.098;9.998;2023-07-02T06:04:34;23.57;;;19.73;;
7485;SDS011;3784;54.098;9.998;2023-07-02T06:07:01;22.50;;;19.63;;
7485;SDS011;3784;54.098;9.998;2023-07-02T06:09:27;26.30;;;24.03;;
7485;SDS011;3784;54.098;9.998;2023-07-02T06:11:53;25.97;;;23.33;;
7485;SDS011;3784;54.098;9.998;2023-07-02T06:14:20;26.27;;;22.57;;
7485;SDS011;3784;54.098;9.998;2023-07-02T06:16:47;27.00;;;20.90;;
7485;SDS011;3784;54.098;9.998;2023-07-02T06:19:14;24.23;;;22.00;;
7485;SDS011;3784;54.098;9.998;2023-07-02T06:21:40;24.43;;;21.83;;
7485;SDS011;3784;54.098;9.998;2023-07-02T06:24:07;23.60;;;21.07;;
7485;SDS011;3784;54.098;9.998;2023-07-02T06:26:33;24.50;;;20.50;;
7485;SDS011;3784;54.098;9.998;2023-07-02T06:28:59;22.13;;;19.90;;
7485;SDS011;3784;54.098;9.998;2023-07-02T06:31:26;23.97;;;20.03;;
7485;SDS011;3784;54.098;9.998;2023-07-02T06:33:52;24.87;;;18.53;;
7485;SDS011;3784;54.098;9.998;2023-07-02T06:36:19;23.00;;;19.53;;
7485;SDS011;3784;54.098;9.998;2023-07-02T06:38:45;24.63;;;21.97;;
7485;SDS011;3784;54.098;9.998;2023-07-02T06:41:12;25.97;;;23.43;;
7485;SDS011;3784;54.098;9.998;2023-07-02T06:43:38;28.07;;;24.07;;
7485;SDS011;3784;54.098;9.998;2023-07-02T06:46:04;29.30;;;26.23;;
7485;SDS011;3784;54.098;9.998;2023-07-02T06:48:31;30.63;;;27.77;;
7485;SDS011;3784;54.098;9.998;2023-07-02T06:50:57;32.77;;;29.90;;
7485;SDS011;3784;54.098;9.998;2023-07-02T06:53:24;31.70;;;28.77;;
7485;SDS011;3784;54.098;9.998;2023-07-02T06:55:50;31.87;;;28.87;;
7485;SDS011;3784;54.098;9.998;2023-07-02T06:58:18;33.23;;;30.30;;
7485;SDS011;3784;54.098;9.998;2023-07-02T07:00:45;40.07;;;37.17;;
7485;SDS011;3784;54.098;9.998;2023-07-02T07:03:12;39.73;;;36.63;;
7485;SDS011;3784;54.098;9.998;2023-07-02T07:05:39;34.30;;;31.60;;
7485;SDS011;3784;54.098;9.998;2023-07-02T07:08:05;34.10;;;31.00;;
7485;SDS011;3784;54.098;9.998;2023-07-02T07:10:32;31.67;;;28.77;;
7485;SDS011;3784;54.098;9.998;2023-07-02T07:13:01;26.67;;;24.13;;
7485;SDS011;3784;54.098;9.998;2023-07-02T07:15:32;25.43;;;22.67;;
7485;SDS011;3784;54.098;9.998;2023-07-02T07:18:00;30.97;;;27.87;;
7485;SDS011;3784;54.098;9.998;2023-07-02T07:20:27;24.70;;;21.97;;
7485;SDS011;3784;54.098;9.998;2023-07-02T07:22:54;39.07;;;32.17;;
7485;SDS011;3784;54.098;9.998;2023-07-02T07:25:20;23.30;;;20.80;;
7485;SDS011;3784;54.098;9.998;2023-07-02T07:27:47;22.80;;;20.67;;
7485;SDS011;3784;54.098;9.998;2023-07-02T07:30:13;21.37;;;19.37;;
7485;SDS011;3784;54.098;9.998;2023-07-02T07:32:41;22.47;;;20.07;;
7485;SDS011;3784;54.098;9.998;2023-07-02T07:35:07;19.57;;;17.73;;
7485;SDS011;3784;54.098;9.998;2023-07-02T07:37:34;23.27;;;17.90;;
7485;SDS011;3784;54.098;9.998;2023-07-02T07:40:00;22.20;;;20.23;;
7485;SDS011;3784;54.098;9.998;2023-07-02T07:42:27;22.17;;;20.37;;
7485;SDS011;3784;54.098;9.998;2023-07-02T07:44:53;20.90;;;18.77;;
7485;SDS011;3784;54.098;9.998;2023-07-02T07:47:19;21.50;;;19.30;;
7485;SDS011;3784;54.098;9.998;2023-07-02T07:49:46;19.83;;;18.13;;
7485;SDS011;3784;54.098;9.998;2023-07-02T07:52:12;21.50;;;19.33;;
7485;SDS011;3784;54.098;9.998;2023-07-02T07:54:39;20.37;;;18.23;;
7485;SDS011;3784;54.098;9.998;2023-07-02T07:57:06;20.23;;;18.33;;
7485;SDS011;3784;54.098;9.998;2023-07-02T07:59:32;21.60;;;19.63;;
7485;SDS011;3784;54.098;9.998;2023-07-02T08:01:59;22.83;;;20.67;;
7485;SDS011;3784;54.098;9.998;2023-07-02T08:04:25;60.70;;;54.83;;
7485;SDS011;3784;54.098;9.998;2023-07-02T08:06:52;22.23;;;20.13;;
7485;SDS011;3784;54.098;9.998;2023-07-02T08:09:18;43.77;;;40.70;;
7485;SDS011;3784;54.098;9.998;2023-07-02T08:11:45;21.73;;;19.73;;
7485;SDS011;3784;54.098;9.998;2023-07-02T08:14:12;22.97;;;20.93;;
7485;SDS011;3784;54.098;9.998;2023-07-02T08:16:39;24.63;;;22.03;;
7485;SDS011;3784;54.098;9.998;2023-07-02T08:19:05;24.47;;;22.17;;
7485;SDS011;3784;54.098;9.998;2023-07-02T08:21:32;22.00;;;19.90;;
7485;SDS011;3784;54.098;9.998;2023-07-02T08:23:58;123.10;;;108.17;;
7485;SDS011;3784;54.098;9.998;2023-07-02T08:26:25;20.47;;;17.57;;
7485;SDS011;3784;54.098;9.998;2023-07-02T08:28:51;80.60;;;47.33;;
7485;SDS011;3784;54.098;9.998;2023-07-02T08:31:18;24.50;;;20.23;;
7485;SDS011;3784;54.098;9.998;2023-07-02T08:33:44;112.70;;;57.00;;
7485;SDS011;3784;54.098;9.998;2023-07-02T08:36:10;14.93;;;13.53;;
7485;SDS011;3784;54.098;9.998;2023-07-02T08:38:37;18.47;;;16.60;;
7485;SDS011;3784;54.098;9.998;2023-07-02T08:41:05;14.60;;;13.10;;
7485;SDS011;3784;54.098;9.998;2023-07-02T08:43:32;15.83;;;14.33;;
7485;SDS011;3784;54.098;9.998;2023-07-02T08:45:59;37.53;;;24.47;;
7485;SDS011;3784;54.098;9.998;2023-07-02T08:48:26;17.63;;;15.33;;
7485;SDS011;3784;54.098;9.998;2023-07-02T08:50:52;17.00;;;15.47;;
7485;SDS011;3784;54.098;9.998;2023-07-02T08:53:20;16.17;;;14.47;;
7485;SDS011;3784;54.098;9.998;2023-07-02T08:55:51;17.60;;;15.73;;
7485;SDS011;3784;54.098;9.998;2023-07-02T08:58:18;17.50;;;14.80;;
7485;SDS011;3784;54.098;9.998;2023-07-02T09:01:06;19.40;;;17.47;;
7485;SDS011;3784;54.098;9.998;2023-07-02T09:03:33;34.93;;;32.07;;
7485;SDS011;3784;54.098;9.998;2023-07-02T09:05:59;31.60;;;29.10;;
7485;SDS011;3784;54.098;9.998;2023-07-02T09:08:26;37.30;;;34.70;;
7485;SDS011;3784;54.098;9.998;2023-07-02T09:11:04;24.20;;;22.10;;
7485;SDS011;3784;54.098;9.998;2023-07-02T09:16:33;19.93;;;17.23;;
7485;SDS011;3784;54.098;9.998;2023-07-02T09:19:10;21.10;;;18.90;;
7485;SDS011;3784;54.098;9.998;2023-07-02T09:21:44;15.03;;;13.43;;
7485;SDS011;3784;54.098;9.998;2023-07-02T09:24:20;19.57;;;17.70;;
7485;SDS011;3784;54.098;9.998;2023-07-02T09:29:36;46.00;;;42.00;;
7485;SDS011;3784;54.098;9.998;2023-07-02T09:32:05;145.53;;;133.07;;
7485;SDS011;3784;54.098;9.998;2023-07-02T09:37:42;82.50;;;77.73;;
7485;SDS011;3784;54.098;9.998;2023-07-02T09:42:44;422.83;;;380.23;;
7485;SDS011;3784;54.098;9.998;2023-07-02T09:45:14;230.40;;;217.60;;
7485;SDS011;3784;54.098;9.998;2023-07-02T09:47:42;108.60;;;102.63;;
7485;SDS011;3784;54.098;9.998;2023-07-02T09:50:20;101.50;;;96.13;;
7485;SDS011;3784;54.098;9.998;2023-07-02T09:52:57;71.53;;;67.10;;
7485;SDS011;3784;54.098;9.998;2023-07-02T09:55:24;100.83;;;95.63;;
7485;SDS011;3784;54.098;9.998;2023-07-02T09:57:57;146.07;;;136.67;;
7485;SDS011;3784;54.098;9.998;2023-07-02T10:00:28;169.47;;;158.00;;
7485;SDS011;3784;54.098;9.998;2023-07-02T10:02:55;77.77;;;73.57;;
7485;SDS011;3784;54.098;9.998;2023-07-02T10:05:29;174.27;;;164.20;;
7485;SDS011;3784;54.098;9.998;2023-07-02T10:08:14;183.90;;;172.53;;
7485;SDS011;3784;54.098;9.998;2023-07-02T10:10:53;352.37;;;325.00;;
7485;SDS011;3784;54.098;9.998;2023-07-02T10:13:27;66.03;;;62.43;;
7485;SDS011;3784;54.098;9.998;2023-07-02T10:16:10;90.57;;;86.20;;
7485;SDS011;3784;54.098;9.998;2023-07-02T10:18:41;213.40;;;200.60;;
7485;SDS011;3784;54.098;9.998;2023-07-02T10:21:16;325.93;;;297.63;;
7485;SDS011;3784;54.098;9.998;2023-07-02T10:24:11;250.37;;;234.23;;
7485;SDS011;3784;54.098;9.998;2023-07-02T10:27:01;432.13;;;402.33;;
7485;SDS011;3784;54.098;9.998;2023-07-02T10:29:32;480.17;;;441.37;;
7485;SDS011;3784;54.098;9.998;2023-07-02T10:32:01;250.53;;;236.10;;
7485;SDS011;3784;54.098;9.998;2023-07-02T10:34:37;198.80;;;186.93;;
7485;SDS011;3784;54.098;9.998;2023-07-02T10:37:21;279.20;;;259.77;;
7485;SDS011;3784;54.098;9.998;2023-07-02T10:39:48;167.00;;;157.77;;
7485;SDS011;3784;54.098;9.998;2023-07-02T10:42:20;66.43;;;62.93;;
7485;SDS011;3784;54.098;9.998;2023-07-02T10:44:49;114.67;;;108.40;;
7485;SDS011;3784;54.098;9.998;2023-07-02T10:47:19;95.10;;;89.93;;
7485;SDS011;3784;54.098;9.998;2023-07-02T10:49:49;57.27;;;53.60;;
7485;SDS011;3784;54.098;9.998;2023-07-02T10:52:17;79.23;;;74.73;;
7485;SDS011;3784;54.098;9.998;2023-07-02T10:54:46;90.23;;;84.57;;
7485;SDS011;3784;54.098;9.998;2023-07-02T10:57:18;22.93;;;20.77;;
7485;SDS011;3784;54.098;9.998;2023-07-02T10:59:52;22.03;;;16.70;;
7485;SDS011;3784;54.098;9.998;2023-07-02T11:02:19;19.13;;;14.07;;
7485;SDS011;3784;54.098;9.998;2023-07-02T11:04:50;17.33;;;13.70;;
7485;SDS011;3784;54.098;9.998;2023-07-02T11:07:27;48.67;;;30.77;;
7485;SDS011;3784;54.098;9.998;2023-07-02T11:09:55;34.60;;;24.83;;
7485;SDS011;3784;54.098;9.998;2023-07-02T11:12:28;18.37;;;16.47;;
7485;SDS011;3784;54.098;9.998;2023-07-02T11:15:14;16.53;;;14.73;;
7485;SDS011;3784;54.098;9.998;2023-07-02T11:17:47;18.43;;;16.53;;
7485;SDS011;3784;54.098;9.998;2023-07-02T11:20:15;72.80;;;46.87;;
7485;SDS011;3784;54.098;9.998;2023-07-02T11:22:42;23.97;;;22.13;;
7485;SDS011;3784;54.098;9.998;2023-07-02T11:25:14;23.43;;;21.53;;
7485;SDS011;3784;54.098;9.998;2023-07-02T11:27:43;21.23;;;18.27;;
7485;SDS011;3784;54.098;9.998;2023-07-02T11:30:15;18.23;;;16.50;;
7485;SDS011;3784;54.098;9.998;2023-07-02T11:32:55;19.83;;;18.03;;
7485;SDS011;3784;54.098;9.998;2023-07-02T11:35:33;27.67;;;25.87;;
7485;SDS011;3784;54.098;9.998;2023-07-02T11:38:00;97.27;;;73.60;;
7485;SDS011;3784;54.098;9.998;2023-07-02T11:40:27;78.57;;;73.27;;
7485;SDS011;3784;54.098;9.998;2023-07-02T11:42:54;258.03;;;230.70;;
7485;SDS011;3784;54.098;9.998;2023-07-02T11:45:21;69.07;;;64.97;;
7485;SDS011;3784;54.098;9.998;2023-07-02T11:47:48;58.03;;;54.67;;
7485;SDS011;3784;54.098;9.998;2023-07-02T11:50:15;73.43;;;69.13;;
7485;SDS011;3784;54.098;9.998;2023-07-02T11:52:52;60.90;;;57.20;;
7485;SDS011;3784;54.098;9.998;2023-07-02T11:55:19;109.07;;;101.97;;
7485;SDS011;3784;54.098;9.998;2023-07-02T11:57:46;129.77;;;121.57;;
7485;SDS011;3784;54.098;9.998;2023-07-02T12:00:16;137.50;;;128.57;;
7485;SDS011;3784;54.098;9.998;2023-07-02T12:02:43;196.77;;;182.70;;
7485;SDS011;3784;54.098;9.998;2023-07-02T12:05:10;71.97;;;68.00;;
7485;SDS011;3784;54.098;9.998;2023-07-02T12:07:38;56.43;;;53.10;;
7485;SDS011;3784;54.098;9.998;2023-07-02T12:10:06;60.00;;;56.63;;
7485;SDS011;3784;54.098;9.998;2023-07-02T12:12:34;293.93;;;251.67;;
7485;SDS011;3784;54.098;9.998;2023-07-02T12:15:01;57.80;;;54.70;;
7485;SDS011;3784;54.098;9.998;2023-07-02T12:17:28;242.63;;;218.00;;
7485;SDS011;3784;54.098;9.998;2023-07-02T12:19:56;262.13;;;234.53;;
7485;SDS011;3784;54.098;9.998;2023-07-02T12:22:23;208.80;;;187.27;;
7485;SDS011;3784;54.098;9.998;2023-07-02T12:24:50;30.83;;;28.93;;
7485;SDS011;3784;54.098;9.998;2023-07-02T12:27:17;111.13;;;101.73;;
7485;SDS011;3784;54.098;9.998;2023-07-02T12:29:43;351.43;;;308.40;;
7485;SDS011;3784;54.098;9.998;2023-07-02T12:32:10;63.40;;;59.83;;
7485;SDS011;3784;54.098;9.998;2023-07-02T12:34:37;73.70;;;68.30;;
7485;SDS011;3784;54.098;9.998;2023-07-02T12:37:04;48.73;;;45.93;;
7485;SDS011;3784;54.098;9.998;2023-07-02T12:39:32;83.37;;;78.70;;
7485;SDS011;3784;54.098;9.998;2023-07-02T12:42:00;217.53;;;201.13;;
7485;SDS011;3784;54.098;9.998;2023-07-02T12:44:26;86.83;;;81.67;;
7485;SDS011;3784;54.098;9.998;2023-07-02T12:46:53;203.10;;;186.53;;
7485;SDS011;3784;54.098;9.998;2023-07-02T12:49:20;66.47;;;62.87;;
7485;SDS011;3784;54.098;9.998;2023-07-02T12:51:47;85.83;;;81.50;;
7485;SDS011;3784;54.098;9.998;2023-07-02T12:54:14;227.53;;;211.57;;
7485;SDS011;3784;54.098;9.998;2023-07-02T12:56:41;101.13;;;96.20;;
7485;SDS011;3784;54.098;9.998;2023-07-02T12:59:08;57.87;;;54.87;;
7485;SDS011;3784;54.098;9.998;2023-07-02T13:01:35;61.00;;;58.10;;
7485;SDS011;3784;54.098;9.998;2023-07-02T13:04:02;33.13;;;30.63;;
7485;SDS011;3784;54.098;9.998;2023-07-02T13:06:30;69.20;;;64.43;;
7485;SDS011;3784;54.098;9.998;2023-07-02T13:09:01;33.33;;;31.20;;
7485;SDS011;3784;54.098;9.998;2023-07-02T13:11:27;248.20;;;208.83;;
7485;SDS011;3784;54.098;9.998;2023-07-02T13:13:54;42.87;;;40.40;;
7485;SDS011;3784;54.098;9.998;2023-07-02T13:16:22;38.47;;;36.00;;
7485;SDS011;3784;54.098;9.998;2023-07-02T13:18:50;38.33;;;36.20;;
7485;SDS011;3784;54.098;9.998;2023-07-02T13:21:18;185.47;;;172.60;;
7485;SDS011;3784;54.098;9.998;2023-07-02T13:23:45;59.43;;;55.63;;
7485;SDS011;3784;54.098;9.998;2023-07-02T13:26:12;92.77;;;86.63;;
7485;SDS011;3784;54.098;9.998;2023-07-02T13:28:38;44.17;;;41.67;;
7485;SDS011;3784;54.098;9.998;2023-07-02T13:31:05;36.93;;;34.40;;
7485;SDS011;3784;54.098;9.998;2023-07-02T13:33:33;201.13;;;185.37;;
7485;SDS011;3784;54.098;9.998;2023-07-02T13:35:59;104.53;;;97.80;;
7485;SDS011;3784;54.098;9.998;2023-07-02T13:38:26;42.77;;;40.23;;
7485;SDS011;3784;54.098;9.998;2023-07-02T13:40:54;65.93;;;61.47;;
7485;SDS011;3784;54.098;9.998;2023-07-02T13:43:21;151.50;;;137.73;;
7485;SDS011;3784;54.098;9.998;2023-07-02T13:45:48;34.57;;;32.37;;
7485;SDS011;3784;54.098;9.998;2023-07-02T13:48:16;91.70;;;86.07;;
7485;SDS011;3784;54.098;9.998;2023-07-02T13:50:42;41.13;;;38.60;;
7485;SDS011;3784;54.098;9.998;2023-07-02T13:53:09;37.77;;;35.33;;
7485;SDS011;3784;54.098;9.998;2023-07-02T13:55:36;33.90;;;32.10;;
7485;SDS011;3784;54.098;9.998;2023-07-02T13:58:03;31.27;;;29.27;;
7485;SDS011;3784;54.098;9.998;2023-07-02T14:00:29;76.50;;;72.13;;
7485;SDS011;3784;54.098;9.998;2023-07-02T14:02:56;80.50;;;74.90;;
7485;SDS011;3784;54.098;9.998;2023-07-02T14:05:24;65.50;;;61.67;;
7485;SDS011;3784;54.098;9.998;2023-07-02T14:07:51;33.57;;;31.20;;
7485;SDS011;3784;54.098;9.998;2023-07-02T14:10:17;46.90;;;44.07;;
7485;SDS011;3784;54.098;9.998;2023-07-02T14:12:44;113.37;;;105.93;;
7485;SDS011;3784;54.098;9.998;2023-07-02T14:15:11;79.33;;;74.53;;
7485;SDS011;3784;54.098;9.998;2023-07-02T14:17:39;100.80;;;95.07;;
7485;SDS011;3784;54.098;9.998;2023-07-02T14:20:06;52.00;;;49.00;;
7485;SDS011;3784;54.098;9.998;2023-07-02T14:22:34;56.73;;;53.27;;
7485;SDS011;3784;54.098;9.998;2023-07-02T14:25:01;181.57;;;168.10;;
7485;SDS011;3784;54.098;9.998;2023-07-02T14:27:28;54.67;;;51.67;;
7485;SDS011;3784;54.098;9.998;2023-07-02T14:29:55;35.30;;;33.10;;
7485;SDS011;3784;54.098;9.998;2023-07-02T14:32:22;69.30;;;65.50;;
7485;SDS011;3784;54.098;9.998;2023-07-02T14:34:49;140.03;;;130.30;;
7485;SDS011;3784;54.098;9.998;2023-07-02T14:37:16;131.17;;;121.13;;
7485;SDS011;3784;54.098;9.998;2023-07-02T14:39:43;43.77;;;41.43;;
7485;SDS011;3784;54.098;9.998;2023-07-02T14:42:29;174.67;;;162.13;;
7485;SDS011;3784;54.098;9.998;2023-07-02T14:44:56;191.50;;;181.80;;
7485;SDS011;3784;54.098;9.998;2023-07-02T14:47:25;247.97;;;235.37;;
7485;SDS011;3784;54.098;9.998;2023-07-02T14:49:51;140.73;;;134.07;;
7485;SDS011;3784;54.098;9.998;2023-07-02T14:52:18;83.50;;;79.60;;
7485;SDS011;3784;54.098;9.998;2023-07-02T14:54:45;257.83;;;236.77;;
7485;SDS011;3784;54.098;9.998;2023-07-02T14:57:12;70.90;;;67.33;;
7485;SDS011;3784;54.098;9.998;2023-07-02T14:59:39;86.97;;;81.60;;
7485;SDS011;3784;54.098;9.998;2023-07-02T15:02:07;69.53;;;65.90;;
7485;SDS011;3784;54.098;9.998;2023-07-02T15:04:34;64.70;;;61.30;;